Bly, North Carolina
Current Conditions -  °F | °C
As of 7:15 PM on Sunday 23 Nov 2014 (Local Time) from KGEV Reporting Station
Heavy Rain Heavy Rain  
Wind Chill: 46°   Ceiling: 300
Heat Index: 46°   Visibility: 1.2mi
Dew Point: 46°   Wind: 3mph
Humidity: 99%   Direction: 140°SE
Pressure: 29.81"   Gusts: NA
Location:  36.524°N, 81.538°W
Report Text: KGEV 240015Z AUTO 14003KT 1 1/4SM +RA OVC003 08/08 A2981 RMK AO2 P0010 T00800078
Loading
Personal Weather Stations






























Interactive Weather Map New forecast layout! Learn more

10-Day Weather Forecast

Advertisements
Track Severe Weather on mobile